Gladstone, Illinois
Current Conditions -  °F | °C
As of 8:53 PM on Sunday 23 Nov 2014 (Local Time) from KBRL Reporting Station
Moderate Fog Moderate Fog  
Wind Chill: 51°   Ceiling: 200
Heat Index: 51°   Visibility: 0.5mi
Dew Point: 51°   Wind: 6mph
Humidity: 100%   Direction: 260°W
Pressure: 29.21"   Gusts: NA
Location:  40.86°N, 90.96°W
Report Text: KBRL 240253Z AUTO 26005KT 1/2SM FG VV002 11/11 A2921 RMK AO2 SLP890 60002 T01060106 56025 $
Loading
Personal Weather Stations






























Interactive Weather Map New forecast layout! Learn more

10-Day Weather Forecast

Advertisements
Track Severe Weather on mobile